Craig, CO

1:26 AM MDT on September 21, 2019 (GMT -0600)
Wright House in Ridgeview | | Change Station
Active Advisory: Freeze Warning

Elev 6339 ft 40.52 °N, 107.59 °W | Updated 1 minute ago

Clear
Clear
41 °F
Feels Like 41 °F
N
0
Wind Variable Wind from West
Gusts 0.0 mph

Today
High -- | Low -- °F
--% Chance of Precip.
Yesterday
High -- | Low -- °F
Precip. -- in
Pressure 30.01 in
Visibility 10.0 miles
Clouds Clear
Windchill 41 °F
Dew Point 27 °F
Humidity 57%
Rainfall 0.00 in
Snow Depth Not available.
6:56 AM 7:09 PM
Waning Gibbous, 58% visible
METAR KCAG 210653Z AUTO 24005KT 10SM CLR 03/M03 A3014 RMK AO2 SLP163 T00281028 402440028
Pressure 30.01 in
Visibility 10.0 miles
Clouds Clear
Windchill 41 °F
Dew Point 27 °F
Humidity 57%
Rainfall 0.00 in
Snow Depth Not available.
6:56 AM 7:09 PM
Waning Gibbous, 58% visible
METAR KCAG 210653Z AUTO 24005KT 10SM CLR 03/M03 A3014 RMK AO2 SLP163 T00281028 402440028

Get Your Daily Forecast Email!

Thanks for signing up!

Be on the lookout for a verification email in your inbox.

You'll start receiving severe weather alerts in your inbox..

×

10-Day Weather Forecast

Almanac

Astronomy

Sep. 21, 2019 Rise Set
Actual Time
Civil Twilight
Nautical Twilight
Astronomical Twilight
Moon
Length of Visible Light
Length of Day
Tomorrow will be .
, % of the Moon is Illuminated

Today's Extremes

State Highs State Lows

Community

WunderPhotos

Category 6

Welcome to Category 6. This is the collective home for Weather Underground's featured writeups by Dr. Jeff Masters (right), Bob Henson (left), Chris Burt, and other regular contributors.

Nearby

Air Quality

  Air Quality AQ Index Pollutant
Not available.

Snow Depth

Station Depth Elevation

Earthquake Activity

City Distance Mag. Time & Date
Minimum magnitude displayed is 2.5.

Coastal Water Temperatures

Place Temperature

Stations

Nearby Weather Stations

Station Location Temp. Windchill Dew Point Humidity Wind Precip. Elev Updated Type
                   

Watches & Warnings

Freeze Warning
Issued: 4:19 PM MDT Sep. 20, 2019 – National Weather Service

... Freeze warning remains in effect from midnight tonight to 9 am
MDT Saturday...

* locations... mainly the upper Yampa River Valley... including the
cities of Craig, Hayden, and Steamboat Springs.

* Temperatures... as low as 27.

* Timing... beginning midnight tonight through late Saturday
morning.

* Impacts... sensitive vegetation... smaller waterlines and swamp
coolers could be impacted by these sub-freezing conditions.

Precautionary/preparedness actions...

A freeze warning means sub-freezing temperatures are imminent or
highly likely. These conditions will kill crops and other
sensitive vegetation.